createdAt,value
2018-11-25T00:02:22.556Z,45.90
2018-11-25T00:04:49.591Z,49.27
2018-11-25T00:07:17.032Z,47.87
2018-11-25T00:09:44.065Z,47.17
2018-11-25T00:12:11.645Z,48.40
2018-11-25T00:14:38.721Z,48.30
2018-11-25T00:17:05.779Z,49.83
2018-11-25T00:19:32.847Z,47.97
2018-11-25T00:22:00.174Z,51.37
2018-11-25T00:24:27.232Z,48.70
2018-11-25T00:26:54.376Z,48.60
2018-11-25T00:29:21.556Z,47.63
2018-11-25T00:31:49.605Z,48.10
2018-11-25T00:34:16.781Z,48.80
2018-11-25T00:36:43.881Z,49.80
2018-11-25T00:39:10.997Z,48.63
2018-11-25T00:41:38.108Z,48.13
2018-11-25T00:44:06.029Z,48.20
2018-11-25T00:46:33.388Z,48.27
2018-11-25T00:49:00.505Z,46.67
2018-11-25T00:51:27.992Z,47.20
2018-11-25T00:53:55.027Z,50.87
2018-11-25T00:56:22.054Z,48.83
2018-11-25T00:58:49.930Z,48.10
2018-11-25T01:01:17.360Z,51.33
2018-11-25T01:03:44.460Z,50.67
2018-11-25T01:06:11.809Z,51.67
2018-11-25T01:08:39.218Z,53.80
2018-11-25T01:11:06.389Z,56.13
2018-11-25T01:13:33.438Z,54.27
2018-11-25T01:16:00.481Z,55.90
2018-11-25T01:18:27.518Z,56.77
2018-11-25T01:20:54.820Z,57.47
2018-11-25T01:23:21.891Z,56.60
2018-11-25T01:25:48.992Z,59.30
2018-11-25T01:28:16.738Z,53.40
2018-11-25T01:30:44.204Z,53.37
2018-11-25T01:33:11.236Z,55.10
2018-11-25T01:35:38.322Z,52.90
2018-11-25T01:38:05.393Z,52.70
2018-11-25T01:40:32.458Z,54.67
2018-11-25T01:42:59.596Z,52.50
2018-11-25T01:45:26.630Z,53.20
2018-11-25T01:47:53.663Z,52.37
2018-11-25T01:50:21.388Z,49.97
2018-11-25T01:52:48.423Z,49.17
2018-11-25T01:55:15.945Z,50.50
2018-11-25T01:57:43.087Z,49.17
2018-11-25T02:00:10.860Z,48.27
2018-11-25T02:02:37.892Z,49.37
2018-11-25T02:05:05.257Z,48.40
2018-11-25T02:07:32.953Z,49.30
2018-11-25T02:09:59.995Z,49.50
2018-11-25T02:12:27.092Z,47.00
2018-11-25T02:14:54.134Z,46.87
2018-11-25T02:17:21.173Z,47.03
2018-11-25T02:19:48.296Z,47.37
2018-11-25T02:22:15.344Z,45.20
2018-11-25T02:24:42.368Z,47.13
2018-11-25T02:27:09.766Z,48.70
2018-11-25T02:29:36.808Z,48.17
2018-11-25T02:32:03.878Z,45.97
2018-11-25T02:34:30.934Z,48.10
2018-11-25T02:36:57.964Z,47.13
2018-11-25T02:39:24.983Z,47.87
2018-11-25T02:41:52.081Z,48.37
2018-11-25T02:44:19.228Z,46.50
2018-11-25T02:46:46.262Z,46.37
2018-11-25T02:49:13.357Z,46.43
2018-11-25T02:51:40.398Z,49.70
2018-11-25T02:54:07.881Z,46.23
2018-11-25T02:56:35.244Z,46.70
2018-11-25T02:59:02.490Z,49.87
2018-11-25T03:01:29.596Z,47.80
2018-11-25T03:03:56.967Z,47.43
2018-11-25T03:06:24.011Z,44.87
2018-11-25T03:08:51.153Z,46.50
2018-11-25T03:11:18.588Z,47.57
2018-11-25T03:13:45.668Z,47.90
2018-11-25T03:16:13.047Z,48.60
2018-11-25T03:18:40.152Z,48.20
2018-11-25T03:21:07.196Z,50.67
2018-11-25T03:23:34.248Z,45.70
2018-11-25T03:26:02.937Z,47.33
2018-11-25T03:28:30.490Z,45.47
2018-11-25T03:30:57.535Z,44.63
2018-11-25T03:33:25.917Z,43.17
2018-11-25T03:35:52.936Z,44.90
2018-11-25T03:38:21.267Z,46.27
2018-11-25T03:40:48.812Z,43.90
2018-11-25T03:43:15.912Z,44.57
2018-11-25T03:45:43.206Z,44.47
2018-11-25T03:48:10.356Z,43.27
2018-11-25T03:50:37.389Z,42.13
2018-11-25T03:53:04.427Z,45.20
2018-11-25T03:55:31.947Z,41.50
2018-11-25T03:57:59.563Z,43.13
2018-11-25T04:00:26.604Z,43.87
2018-11-25T04:02:54.108Z,44.00
2018-11-25T04:05:21.129Z,45.10
2018-11-25T04:07:48.152Z,43.40
2018-11-25T04:10:16.981Z,43.87
2018-11-25T04:12:44.032Z,47.70
2018-11-25T04:15:12.116Z,43.00
2018-11-25T04:17:40.402Z,45.57
2018-11-25T04:20:10.065Z,45.13
2018-11-25T04:22:37.344Z,47.10
2018-11-25T04:25:05.796Z,46.77
2018-11-25T04:27:34.306Z,46.57
2018-11-25T04:30:01.348Z,43.80
2018-11-25T04:32:28.482Z,47.17
2018-11-25T04:34:55.500Z,46.87
2018-11-25T04:37:24.692Z,47.20
2018-11-25T04:39:51.744Z,48.60
2018-11-25T04:42:18.832Z,46.50
2018-11-25T04:44:45.866Z,46.37
2018-11-25T04:47:13.263Z,47.93
2018-11-25T04:49:40.337Z,47.90
2018-11-25T04:52:07.611Z,48.50
2018-11-25T04:54:34.991Z,49.27
2018-11-25T04:57:02.015Z,45.73
2018-11-25T04:59:29.054Z,45.90
2018-11-25T05:01:56.356Z,44.30
2018-11-25T05:04:23.399Z,46.37
2018-11-25T05:06:50.436Z,44.73
2018-11-25T05:09:17.864Z,46.30
2018-11-25T05:11:44.945Z,43.50
2018-11-25T05:14:11.977Z,45.30
2018-11-25T05:16:39.068Z,46.00
2018-11-25T05:19:06.124Z,46.07
2018-11-25T05:21:33.376Z,44.60
2018-11-25T05:24:01.006Z,46.73
2018-11-25T05:26:28.061Z,45.73
2018-11-25T05:28:55.088Z,44.70
2018-11-25T05:31:22.501Z,45.47
2018-11-25T05:33:49.545Z,46.77
2018-11-25T05:36:16.593Z,44.60
2018-11-25T05:38:43.644Z,46.80
2018-11-25T05:41:10.730Z,47.80
2018-11-25T05:43:37.796Z,46.57
2018-11-25T05:46:05.685Z,44.57
2018-11-25T05:48:32.764Z,45.50
2018-11-25T05:50:59.946Z,46.93
2018-11-25T05:53:27.340Z,42.83
2018-11-25T05:55:54.453Z,41.83
2018-11-25T05:58:21.521Z,42.27
2018-11-25T06:00:48.622Z,42.03
2018-11-25T06:03:15.924Z,44.13
2018-11-25T06:05:43.154Z,44.33
2018-11-25T06:08:10.335Z,43.60
2018-11-25T06:10:37.633Z,43.23
2018-11-25T06:13:05.038Z,45.63
2018-11-25T06:15:32.152Z,45.70
2018-11-25T06:17:59.240Z,45.70
2018-11-25T06:20:26.320Z,45.37
2018-11-25T06:22:53.683Z,44.20
2018-11-25T06:25:20.789Z,42.10
2018-11-25T06:27:47.880Z,44.27
2018-11-25T06:30:15.704Z,43.07
2018-11-25T06:32:42.771Z,40.60
2018-11-25T06:35:10.395Z,41.13
2018-11-25T06:37:37.456Z,41.33
2018-11-25T06:40:10.073Z,43.13
2018-11-25T06:42:37.276Z,40.90
2018-11-25T06:45:06.762Z,41.47
2018-11-25T06:47:33.832Z,39.73
2018-11-25T06:50:00.980Z,39.07
2018-11-25T06:52:28.142Z,39.13
2018-11-25T06:54:55.170Z,42.10
2018-11-25T06:57:22.227Z,42.67
2018-11-25T06:59:49.609Z,40.97
2018-11-25T07:02:16.768Z,42.13
2018-11-25T07:04:43.897Z,40.80
2018-11-25T07:07:11.065Z,42.83
2018-11-25T07:09:38.100Z,40.80
2018-11-25T07:12:05.247Z,39.37
2018-11-25T07:14:32.364Z,42.60
2018-11-25T07:16:59.425Z,41.33
2018-11-25T07:19:26.453Z,38.60
2018-11-25T07:21:53.866Z,38.93
2018-11-25T07:24:20.936Z,42.07
2018-11-25T07:26:47.962Z,38.70
2018-11-25T07:29:15.098Z,40.47
2018-11-25T07:31:42.116Z,40.97
2018-11-25T07:34:09.192Z,38.40
2018-11-25T07:36:36.668Z,39.53
2018-11-25T07:39:04.977Z,40.27
2018-11-25T07:41:32.224Z,37.30
2018-11-25T07:43:59.560Z,37.50
2018-11-25T07:46:26.732Z,38.47
2018-11-25T07:48:53.752Z,39.00
2018-11-25T07:51:21.096Z,38.37
2018-11-25T07:53:48.153Z,37.40
2018-11-25T07:56:15.260Z,39.33
2018-11-25T07:58:42.670Z,41.00
2018-11-25T08:01:09.714Z,41.10
2018-11-25T08:03:36.782Z,41.43
2018-11-25T08:06:03.880Z,44.37
2018-11-25T08:08:30.917Z,41.07
2018-11-25T08:10:57.959Z,44.67
2018-11-25T08:13:25.343Z,38.47
2018-11-25T08:15:52.460Z,40.27
2018-11-25T08:18:19.490Z,39.07
2018-11-25T08:20:46.613Z,38.20
2018-11-25T08:23:15.605Z,38.30
2018-11-25T08:25:40.881Z,39.90
2018-11-25T08:28:08.272Z,39.00
2018-11-25T08:30:35.426Z,38.70
2018-11-25T08:33:02.564Z,39.43
2018-11-25T08:35:29.652Z,39.37
2018-11-25T08:37:56.827Z,41.17
2018-11-25T08:40:24.180Z,39.30
2018-11-25T08:42:51.362Z,42.70
2018-11-25T08:45:18.417Z,38.17
2018-11-25T08:47:45.546Z,38.47
2018-11-25T08:50:13.437Z,41.73
2018-11-25T08:52:40.784Z,40.83
2018-11-25T08:55:09.419Z,41.70
2018-11-25T08:57:36.474Z,39.30
2018-11-25T09:00:04.306Z,39.43
2018-11-25T09:02:31.344Z,42.53
2018-11-25T09:04:58.423Z,40.87
2018-11-25T09:07:25.457Z,41.50
2018-11-25T09:09:52.554Z,40.27
2018-11-25T09:12:19.924Z,40.43
2018-11-25T09:14:46.981Z,43.90
2018-11-25T09:17:14.001Z,41.80
2018-11-25T09:19:41.087Z,43.10
2018-11-25T09:22:08.191Z,41.77
2018-11-25T09:24:35.292Z,43.40
2018-11-25T09:27:02.405Z,39.97
2018-11-25T09:29:29.485Z,40.63
2018-11-25T09:31:56.600Z,40.33
2018-11-25T09:34:23.946Z,40.47
2018-11-25T09:36:51.105Z,38.87
2018-11-25T09:39:18.237Z,41.50
2018-11-25T09:41:45.525Z,39.37
2018-11-25T09:44:13.669Z,39.57
2018-11-25T09:46:42.727Z,38.83
2018-11-25T09:49:08.220Z,38.60
2018-11-25T09:51:35.249Z,38.10
2018-11-25T09:54:02.280Z,36.83
2018-11-25T09:56:29.416Z,37.33
2018-11-25T09:58:56.496Z,39.43
2018-11-25T10:01:23.648Z,37.63
2018-11-25T10:03:50.981Z,38.67
2018-11-25T10:06:18.069Z,38.50
2018-11-25T10:08:45.095Z,38.83
2018-11-25T10:11:12.263Z,37.80
2018-11-25T10:13:39.364Z,37.87
2018-11-25T10:16:06.384Z,37.77
2018-11-25T10:18:33.805Z,39.73
2018-11-25T10:21:00.853Z,39.10
2018-11-25T10:23:27.922Z,40.87
2018-11-25T10:25:55.258Z,38.20
2018-11-25T10:28:22.298Z,39.60
2018-11-25T10:30:49.362Z,40.00
2018-11-25T10:33:16.412Z,40.97
2018-11-25T10:35:43.450Z,40.70
2018-11-25T10:38:10.484Z,39.80
2018-11-25T10:40:38.060Z,38.00
2018-11-25T10:43:05.085Z,42.07
2018-11-25T10:45:32.128Z,40.70
2018-11-25T10:47:59.624Z,38.90
2018-11-25T10:50:26.739Z,41.83
2018-11-25T10:52:53.889Z,40.07
2018-11-25T10:55:21.688Z,39.30
2018-11-25T10:57:49.368Z,42.53
2018-11-25T11:00:37.122Z,42.43
2018-11-25T11:03:11.506Z,43.50
2018-11-25T11:05:44.643Z,41.30
2018-11-25T11:08:11.700Z,41.37
2018-11-25T11:10:38.748Z,43.27
2018-11-25T11:13:06.448Z,41.10
2018-11-25T11:15:33.657Z,42.97
2018-11-25T11:18:00.713Z,43.17
2018-11-25T11:20:27.901Z,42.50
2018-11-25T11:22:55.119Z,43.13
2018-11-25T11:25:22.130Z,43.20
2018-11-25T11:27:49.245Z,44.17
2018-11-25T11:30:18.782Z,43.90
2018-11-25T11:32:46.628Z,40.97
2018-11-25T11:35:14.069Z,41.77
2018-11-25T11:37:41.180Z,44.03
2018-11-25T11:40:10.075Z,43.17
2018-11-25T11:42:35.981Z,44.07
2018-11-25T11:45:03.725Z,44.33
2018-11-25T11:47:30.822Z,41.63
2018-11-25T11:49:58.309Z,43.67
2018-11-25T11:52:25.525Z,41.53
2018-11-25T11:54:52.636Z,40.70
2018-11-25T11:57:19.985Z,39.17
2018-11-25T11:59:47.108Z,40.60
2018-11-25T12:02:14.159Z,38.90
2018-11-25T12:04:41.328Z,40.00
2018-11-25T12:07:08.377Z,39.43
2018-11-25T12:09:35.571Z,38.00
2018-11-25T12:12:02.665Z,39.00
2018-11-25T12:14:29.721Z,39.40
2018-11-25T12:16:56.829Z,38.73
2018-11-25T12:19:24.676Z,38.53
2018-11-25T12:21:58.077Z,36.27
2018-11-25T12:24:19.029Z,38.60
2018-11-25T12:26:46.588Z,40.03
2018-11-25T12:29:13.692Z,39.73
2018-11-25T12:31:40.745Z,37.97
2018-11-25T12:34:08.069Z,38.73
2018-11-25T12:36:35.208Z,39.23
2018-11-25T12:39:02.549Z,37.60
2018-11-25T12:41:29.701Z,38.70
2018-11-25T12:43:56.748Z,37.73
2018-11-25T12:46:23.830Z,36.53
2018-11-25T12:48:50.968Z,37.13
2018-11-25T12:51:18.036Z,36.37
2018-11-25T12:53:45.097Z,37.00
2018-11-25T12:56:14.253Z,39.37
2018-11-25T12:58:41.388Z,37.97
2018-11-25T13:01:08.416Z,38.50
2018-11-25T13:03:35.560Z,36.87
2018-11-25T13:06:02.613Z,36.80
2018-11-25T13:08:29.696Z,37.40
2018-11-25T13:10:57.831Z,39.30
2018-11-25T13:13:25.061Z,37.50
2018-11-25T13:15:52.156Z,35.90
2018-11-25T13:18:19.260Z,36.73
2018-11-25T13:20:46.389Z,36.83
2018-11-25T13:23:13.792Z,34.97
2018-11-25T13:25:41.141Z,38.30
2018-11-25T13:28:08.346Z,37.73
2018-11-25T13:30:35.470Z,38.83
2018-11-25T13:33:02.572Z,39.73
2018-11-25T13:35:31.189Z,37.47
2018-11-25T13:37:58.279Z,39.70
2018-11-25T13:40:25.827Z,39.70
2018-11-25T13:42:53.187Z,37.97
2018-11-25T13:45:20.401Z,40.17
2018-11-25T13:47:47.776Z,37.90
2018-11-25T13:50:14.859Z,37.57
2018-11-25T13:52:41.957Z,39.43
2018-11-25T13:55:10.728Z,36.73
2018-11-25T13:57:39.040Z,40.20
2018-11-25T14:01:10.997Z,39.37
2018-11-25T14:03:38.876Z,39.50
2018-11-25T14:06:07.578Z,37.77
2018-11-25T14:08:34.988Z,40.43
2018-11-25T14:11:04.523Z,41.00
2018-11-25T14:13:31.637Z,41.07
2018-11-25T14:15:58.813Z,41.70
2018-11-25T14:18:25.850Z,41.10
2018-11-25T14:20:53.005Z,41.37
2018-11-25T14:23:20.464Z,41.27
2018-11-25T14:25:47.919Z,50.50
2018-11-25T14:28:15.289Z,42.60
2018-11-25T14:30:42.534Z,41.90
2018-11-25T14:33:09.626Z,37.03
2018-11-25T14:35:36.806Z,40.37
2018-11-25T14:38:03.957Z,38.23
2018-11-25T14:40:31.078Z,41.60
2018-11-25T14:42:58.137Z,43.63
2018-11-25T14:45:25.444Z,45.40
2018-11-25T14:47:52.505Z,44.90
2018-11-25T14:50:19.629Z,43.97
2018-11-25T14:52:47.823Z,42.27
2018-11-25T14:55:15.081Z,46.67
2018-11-25T14:57:42.118Z,46.63
2018-11-25T15:00:14.842Z,44.23
2018-11-25T15:02:42.222Z,47.20
2018-11-25T15:05:11.493Z,47.10
2018-11-25T15:07:38.921Z,44.33
2018-11-25T15:10:06.690Z,46.30
2018-11-25T15:12:33.768Z,50.30
2018-11-25T15:15:01.386Z,49.00
2018-11-25T15:17:28.653Z,47.10
2018-11-25T15:19:55.701Z,48.43
2018-11-25T15:22:22.792Z,44.93
2018-11-25T15:24:49.852Z,46.50
2018-11-25T15:27:16.894Z,45.23
2018-11-25T15:29:44.288Z,43.43
2018-11-25T15:32:11.373Z,46.53
2018-11-25T15:34:38.611Z,45.47
2018-11-25T15:37:05.789Z,46.80
2018-11-25T15:39:32.972Z,45.30
2018-11-25T15:42:00.051Z,46.77
2018-11-25T15:44:27.313Z,48.23
2018-11-25T15:46:54.485Z,48.70
2018-11-25T15:49:21.564Z,55.90
2018-11-25T15:51:49.092Z,50.53
2018-11-25T15:54:16.172Z,43.93
2018-11-25T15:56:43.388Z,47.30
2018-11-25T15:59:10.556Z,47.17
2018-11-25T16:01:37.725Z,48.53
2018-11-25T16:04:04.795Z,47.03
2018-11-25T16:06:33.185Z,46.87
2018-11-25T16:09:00.256Z,45.93
2018-11-25T16:11:27.449Z,44.93
2018-11-25T16:13:54.864Z,47.93
2018-11-25T16:16:21.945Z,44.50
2018-11-25T16:18:49.055Z,45.37
2018-11-25T16:21:16.115Z,45.37
2018-11-25T16:23:49.960Z,47.27
2018-11-25T16:26:18.776Z,47.40
2018-11-25T16:28:46.828Z,45.70
2018-11-25T16:31:13.889Z,45.90
2018-11-25T16:33:41.349Z,44.63
2018-11-25T16:36:08.441Z,46.00
2018-11-25T16:38:35.562Z,48.30
2018-11-25T16:41:02.629Z,45.37
2018-11-25T16:43:29.808Z,43.27
2018-11-25T16:45:56.881Z,45.97
2018-11-25T16:48:24.173Z,46.07
2018-11-25T16:50:51.320Z,46.10
2018-11-25T16:53:18.374Z,47.77
2018-11-25T16:55:45.707Z,46.47
2018-11-25T16:58:14.704Z,46.33
2018-11-25T17:00:41.746Z,48.30
2018-11-25T17:03:08.860Z,49.13
2018-11-25T17:05:36.847Z,44.20
2018-11-25T17:08:07.497Z,45.10
2018-11-25T17:10:35.037Z,49.67
2018-11-25T17:13:02.141Z,45.70
2018-11-25T17:15:29.122Z,44.90
2018-11-25T17:17:56.307Z,44.67
2018-11-25T17:20:23.376Z,44.40
2018-11-25T17:22:50.641Z,43.17
2018-11-25T17:25:17.955Z,45.20
2018-11-25T17:27:44.981Z,47.90
2018-11-25T17:30:12.588Z,45.60
2018-11-25T17:32:40.115Z,44.90
2018-11-25T17:35:08.014Z,45.40
2018-11-25T17:37:35.302Z,46.80
2018-11-25T17:40:02.411Z,49.07
2018-11-25T17:42:29.505Z,52.27
2018-11-25T17:44:56.676Z,50.47
2018-11-25T17:47:23.973Z,52.23
2018-11-25T17:49:51.082Z,54.73
2018-11-25T17:52:18.145Z,53.07
2018-11-25T17:54:45.503Z,57.70
2018-11-25T17:57:12.569Z,51.07
2018-11-25T17:59:39.671Z,54.23
2018-11-25T18:02:06.826Z,61.30
2018-11-25T18:04:33.884Z,57.27
2018-11-25T18:07:00.913Z,54.90
2018-11-25T18:09:28.405Z,53.10
2018-11-25T18:11:55.449Z,59.53
2018-11-25T18:14:23.234Z,53.27
2018-11-25T18:16:51.657Z,52.37
2018-11-25T18:19:22.232Z,54.60
2018-11-25T18:21:50.623Z,50.83
2018-11-25T18:24:17.682Z,55.37
2018-11-25T18:26:45.097Z,51.97
2018-11-25T18:29:15.440Z,52.77
2018-11-25T18:31:42.558Z,59.50
2018-11-25T18:34:09.639Z,53.87
2018-11-25T18:36:37.199Z,60.33
2018-11-25T18:39:06.763Z,51.00
2018-11-25T18:41:33.819Z,51.87
2018-11-25T18:44:00.888Z,50.43
2018-11-25T18:46:27.922Z,51.53
2018-11-25T18:48:55.412Z,50.37
2018-11-25T18:51:22.861Z,53.20
2018-11-25T18:53:49.898Z,52.37
2018-11-25T18:56:17.045Z,51.97
2018-11-25T18:58:44.151Z,52.93
2018-11-25T19:01:12.740Z,54.60
2018-11-25T19:03:39.825Z,54.87
2018-11-25T19:06:07.579Z,52.57
2018-11-25T19:08:34.636Z,49.77
2018-11-25T19:11:01.783Z,50.60
2018-11-25T19:13:29.656Z,49.50
2018-11-25T19:15:56.739Z,49.07
2018-11-25T19:18:24.587Z,50.07
2018-11-25T19:20:52.498Z,51.10
2018-11-25T19:23:19.928Z,47.67
2018-11-25T19:25:47.395Z,47.03
2018-11-25T19:28:15.161Z,45.83
2018-11-25T19:30:42.639Z,45.53
2018-11-25T19:33:10.012Z,47.80
2018-11-25T19:35:38.117Z,48.60
2018-11-25T19:38:05.776Z,45.87
2018-11-25T19:40:33.283Z,46.33
2018-11-25T19:43:00.893Z,48.17
2018-11-25T19:45:28.334Z,46.40
2018-11-25T19:47:56.268Z,49.03
2018-11-25T19:50:25.423Z,46.60
2018-11-25T19:52:53.234Z,46.93
2018-11-25T19:55:21.684Z,48.40
2018-11-25T19:57:48.488Z,48.23
2018-11-25T20:00:16.574Z,41.90
2018-11-25T20:02:44.684Z,43.23
2018-11-25T20:05:20.418Z,44.30
2018-11-25T20:07:48.897Z,42.50
2018-11-25T20:10:18.069Z,41.20
2018-11-25T20:12:46.960Z,41.97
2018-11-25T20:15:14.875Z,35.73
2018-11-25T20:17:42.374Z,41.43
2018-11-25T20:20:13.361Z,39.90
2018-11-25T20:22:40.526Z,42.83
2018-11-25T20:25:08.211Z,40.77
2018-11-25T20:27:36.452Z,40.20
2018-11-25T20:30:05.455Z,37.97
2018-11-25T20:32:37.910Z,38.10
2018-11-25T20:35:05.076Z,37.23
2018-11-25T20:37:32.453Z,33.67
2018-11-25T20:39:59.587Z,36.63
2018-11-25T20:42:26.906Z,35.13
2018-11-25T20:44:54.044Z,35.17
2018-11-25T20:47:22.006Z,36.10
2018-11-25T20:49:49.357Z,35.50
2018-11-25T20:53:26.388Z,36.50
2018-11-25T20:55:53.429Z,33.50
2018-11-25T20:58:20.508Z,33.87
2018-11-25T21:00:48.137Z,34.30
2018-11-25T21:03:15.219Z,34.63
2018-11-25T21:05:43.402Z,34.17
2018-11-25T21:08:11.266Z,34.10
2018-11-25T21:10:38.289Z,31.40
2018-11-25T21:13:05.821Z,34.03
2018-11-25T21:15:32.900Z,32.60
2018-11-25T21:18:00.269Z,34.40
2018-11-25T21:20:27.298Z,34.27
2018-11-25T21:22:54.368Z,34.80
2018-11-25T21:25:21.793Z,34.77
2018-11-25T21:27:48.861Z,33.60
2018-11-25T21:30:17.730Z,34.90
2018-11-25T21:32:45.938Z,33.43
2018-11-25T21:35:13.599Z,29.90
2018-11-25T21:37:40.729Z,31.23
2018-11-25T21:40:09.305Z,34.43
2018-11-25T21:42:36.465Z,32.60
2018-11-25T21:45:03.919Z,33.33
2018-11-25T21:47:30.966Z,33.70
2018-11-25T21:49:58.097Z,33.07
2018-11-25T21:52:25.149Z,35.70
2018-11-25T21:54:52.437Z,36.33
2018-11-25T21:57:19.493Z,34.93
2018-11-25T21:59:46.912Z,28.73
2018-11-25T22:02:13.977Z,32.30
2018-11-25T22:04:41.002Z,35.10
2018-11-25T22:07:08.489Z,32.37
2018-11-25T22:09:35.576Z,33.37
2018-11-25T22:12:02.605Z,32.90
2018-11-25T22:14:29.826Z,33.10
2018-11-25T22:16:56.887Z,32.53
2018-11-25T22:19:24.089Z,30.37
2018-11-25T22:21:51.358Z,31.53
2018-11-25T22:24:18.388Z,31.67
2018-11-25T22:26:45.530Z,30.00
2018-11-25T22:29:12.923Z,27.63
2018-11-25T22:31:40.054Z,28.13
2018-11-25T22:34:07.358Z,29.13
2018-11-25T22:36:34.622Z,26.83
2018-11-25T22:39:01.690Z,30.70
2018-11-25T22:41:28.834Z,28.03
2018-11-25T22:43:56.232Z,30.47
2018-11-25T22:46:23.267Z,31.10
2018-11-25T22:48:50.319Z,31.67
2018-11-25T22:51:18.631Z,28.60
2018-11-25T22:53:45.840Z,28.80
2018-11-25T22:56:12.921Z,28.73
2018-11-25T22:58:40.140Z,30.20
2018-11-25T23:01:08.308Z,30.27
2018-11-25T23:03:35.388Z,28.37
2018-11-25T23:06:08.561Z,29.40
2018-11-25T23:08:36.854Z,28.43
2018-11-25T23:11:03.936Z,29.23
2018-11-25T23:13:31.037Z,28.20
2018-11-25T23:16:00.128Z,31.00
2018-11-25T23:18:27.175Z,32.00
2018-11-25T23:20:54.954Z,31.33
2018-11-25T23:23:22.313Z,30.90
2018-11-25T23:25:49.425Z,30.10
2018-11-25T23:28:16.482Z,31.00
2018-11-25T23:30:43.661Z,28.47
2018-11-25T23:33:10.740Z,29.73
2018-11-25T23:35:38.308Z,29.73
2018-11-25T23:38:05.810Z,31.20
2018-11-25T23:40:33.117Z,29.70
2018-11-25T23:43:00.369Z,30.67
2018-11-25T23:45:27.518Z,30.50
2018-11-25T23:47:54.596Z,27.43
2018-11-25T23:50:21.986Z,27.53
2018-11-25T23:52:49.176Z,29.30
2018-11-25T23:55:16.263Z,30.77
2018-11-25T23:57:43.549Z,29.97
